Observations for EXETER AIRPORT, United Kingdom (EGTE)

EGTE 100920Z 06003KT 9999 FEW030 04/03 Q1030
EGTE 100850Z 35003KT 9999 FEW025 04/04 Q1029
EGTE 100820Z 32003KT 9999 FEW025 04/03 Q1029
EGTE 100750Z 31006KT 9999 FEW025 05/04 Q1028
EGTE 100720Z 36006KT 9999 FEW025 04/03 Q1028
EGTE 100650Z 03003KT 9999 FEW025 04/03 Q1028
EGTE 100620Z 08003KT 9999 FEW025 05/04 Q1028
EGTE 100550Z 28003KT 9999 FEW025 06/04 Q1028
EGTE 092250Z 29007KT 260V320 9999 FEW030 08/05 Q1025
EGTE 092220Z 25004KT 9999 FEW025 08/06 Q1025
EGTE 092150Z 28006KT 230V300 9999 FEW025 08/05 Q1025
EGTE 092120Z 29010KT 9999 FEW025 09/06 Q1025
EGTE 092050Z 29010KT CAVOK 09/06 Q1024  
EGTE 092020Z 29009KT 9999 FEW025 07/05 Q1024
EGTE 091950Z 29009KT 9999 FEW025 08/05 Q1024
EGTE 091920Z 28006KT 9999 FEW025 09/07 Q1023
EGTE 091850Z 29008KT 9999 FEW025 08/06 Q1023
EGTE 091820Z 29009KT 9999 FEW025 08/06 Q1022
EGTE 091750Z 29010KT 9999 FEW025 08/07 Q1022
EGTE 091720Z 30012KT 9999 FEW025 08/06 Q1021
EGTE 091650Z 29014KT 260V320 9999 -SHRA FEW040CB 09/07 Q1021
EGTE 091620Z 30012KT 9999 VCSH FEW040CB 08/06 Q1020 
EGTE 091550Z 30010KT 270V330 9999 VCSH FEW040CB 10/07 Q1020 
EGTE 091520Z 30013KT 9999 FEW040 11/08 Q1019
EGTE 091450Z 30017KT 9999 FEW040 11/06 Q1018
EGTE 091420Z 30016KT 9999 FEW035 10/06 Q1018
EGTE 091350Z 30018KT 9999 SCT040 10/07 Q1017
EGTE 091320Z 30019G29KT 9999 SCT035 11/06 Q1016 
EGTE 091250Z 30018KT 9999 VCSH SCT035 11/07 Q1015   
EGTE 091220Z 30019KT 9999 VCSH SCT035 10/06 Q1015   
EGTE 091150Z 29018KT 260V320 9999 VCSH SCT030 11/08 Q1014   
EGTE 091120Z 30016KT 9999 VCSH SCT033 11/08 Q1014   
EGTE 091050Z 30018G30KT 9999 VCSH BKN033 11/08 Q1013
EGTE 091020Z 30017G30KT 9999 VCSH SCT028 10/08 Q1012
EGTE 090950Z 29015KT 270V330 9999 SCT023CB 10/08 Q1011 RESHRA   
EGTE 090920Z 29019G31KT 260V320 9999 4000W SHRA SCT025 10/08 Q1010  
EGTE 090850Z 29017G27KT 9999 -SHRA SCT030 10/07 Q1010